createdAt,value
2023-02-23T00:03:10.745Z,2.42
2023-02-23T00:18:15.069Z,2.38
2023-02-23T00:33:19.506Z,2.39
2023-02-23T00:48:22.767Z,2.40
2023-02-23T01:03:26.951Z,2.26
2023-02-23T01:18:30.177Z,2.21
2023-02-23T01:33:33.431Z,2.11
2023-02-23T01:48:40.347Z,2.02
2023-02-23T02:04:06.514Z,1.92
2023-02-23T02:19:48.955Z,1.86
2023-02-23T02:35:20.720Z,1.73
2023-02-23T02:50:50.895Z,1.62
2023-02-23T03:06:13.999Z,1.56
2023-02-23T03:21:46.686Z,1.56
2023-02-23T03:37:14.538Z,1.51
2023-02-23T03:52:42.010Z,1.51
2023-02-23T04:20:45.094Z,1.47
2023-02-23T04:35:49.386Z,1.41
2023-02-23T04:50:53.926Z,1.42
2023-02-23T05:05:57.225Z,1.39
2023-02-23T05:21:08.840Z,1.39
2023-02-23T05:36:14.375Z,1.31
2023-02-23T05:51:19.088Z,1.23
2023-02-23T06:06:24.208Z,1.29
2023-02-23T06:21:27.842Z,1.32
2023-02-23T06:36:31.036Z,1.45
2023-02-23T06:51:34.716Z,1.65
2023-02-23T07:06:38.336Z,1.89
2023-02-23T07:21:41.775Z,2.08
2023-02-23T07:36:45.213Z,2.48
2023-02-23T07:51:48.627Z,2.88
2023-02-23T08:06:51.900Z,3.27
2023-02-23T08:21:56.725Z,3.84
2023-02-23T08:37:00.597Z,3.89
2023-02-23T08:52:04.485Z,3.95
2023-02-23T09:07:09.883Z,4.15
2023-02-23T09:22:13.444Z,4.52
2023-02-23T09:37:16.798Z,4.74
2023-02-23T09:52:25.643Z,5.08
2023-02-23T10:07:44.417Z,5.57
2023-02-23T10:22:49.632Z,5.77
2023-02-23T10:37:54.096Z,6.33
2023-02-23T10:53:11.769Z,7.38
2023-02-23T11:08:26.141Z,8.27
2023-02-23T11:23:35.089Z,8.36
2023-02-23T11:38:38.588Z,8.85
2023-02-23T11:53:46.931Z,9.65
2023-02-23T12:08:56.413Z,10.35
2023-02-23T12:24:38.050Z,10.17
2023-02-23T12:39:46.960Z,10.10
2023-02-23T12:54:50.280Z,10.83
2023-02-23T13:10:10.790Z,11.82
2023-02-23T13:25:31.049Z,12.14
2023-02-23T13:40:56.320Z,12.76
2023-02-23T13:56:03.328Z,14.01
2023-02-23T14:11:07.644Z,13.24
2023-02-23T14:26:35.515Z,12.33
2023-02-23T14:42:06.764Z,10.48
2023-02-23T14:57:25.561Z,9.91
2023-02-23T15:12:35.249Z,9.42
2023-02-23T15:27:43.136Z,8.73
2023-02-23T15:42:51.675Z,8.23
2023-02-23T15:58:15.715Z,7.87
2023-02-23T16:13:22.072Z,7.62
2023-02-23T16:28:31.180Z,7.36
2023-02-23T16:43:37.360Z,7.14
2023-02-23T16:58:43.728Z,7.06
2023-02-23T17:13:47.238Z,7.05
2023-02-23T17:28:51.830Z,7.03
2023-02-23T17:43:55.732Z,7.01
2023-02-23T17:58:59.132Z,7.07
2023-02-23T18:14:04.082Z,7.06
2023-02-23T18:29:08.485Z,7.03
2023-02-23T18:44:17.267Z,6.92
2023-02-23T18:59:20.852Z,6.93
2023-02-23T19:14:46.369Z,6.98
2023-02-23T19:29:48.925Z,7.02
2023-02-23T19:44:54.914Z,7.12
2023-02-23T19:59:58.774Z,7.07
2023-02-23T20:15:06.629Z,7.01
2023-02-23T20:30:14.718Z,6.96
2023-02-23T20:45:22.277Z,7.01
2023-02-23T21:00:29.302Z,7.14
2023-02-23T21:15:35.560Z,7.23
2023-02-23T21:30:39.124Z,7.18
2023-02-23T21:45:46.818Z,7.27
2023-02-23T22:00:50.662Z,7.22
2023-02-23T22:15:59.100Z,7.16
2023-02-23T22:31:04.898Z,7.17
2023-02-23T22:46:09.697Z,7.11
2023-02-23T23:01:12.966Z,7.14
2023-02-23T23:16:31.067Z,7.22
2023-02-23T23:31:36.750Z,7.25
2023-02-23T23:46:43.297Z,7.29
